createdAt,value
2022-12-18T00:03:06.074Z,8.24
2022-12-18T00:08:03.136Z,8.00
2022-12-18T00:13:09.880Z,7.83
2022-12-18T00:18:07.468Z,8.04
2022-12-18T00:23:04.288Z,7.78
2022-12-18T00:28:01.627Z,7.87
2022-12-18T00:32:59.179Z,7.68
2022-12-18T00:37:56.175Z,7.51
2022-12-18T00:42:56.291Z,7.82
2022-12-18T00:47:54.203Z,7.76
2022-12-18T00:52:52.759Z,7.73
2022-12-18T00:57:51.738Z,7.58
2022-12-18T01:02:48.801Z,7.55
2022-12-18T01:07:45.722Z,7.61
2022-12-18T01:12:43.197Z,7.55
2022-12-18T01:17:40.908Z,7.56
2022-12-18T01:22:37.797Z,7.29
2022-12-18T01:27:35.255Z,7.14
2022-12-18T01:32:34.958Z,7.22
2022-12-18T01:37:32.817Z,7.16
2022-12-18T01:42:29.602Z,7.46
2022-12-18T01:47:30.413Z,7.16
2022-12-18T01:52:31.172Z,7.13
2022-12-18T01:57:29.789Z,7.43
2022-12-18T02:02:28.742Z,7.43
2022-12-18T02:07:38.777Z,7.27
2022-12-18T02:12:43.901Z,7.42
2022-12-18T02:17:47.257Z,7.39
2022-12-18T02:23:00.149Z,7.29
2022-12-18T02:28:03.093Z,6.76
2022-12-18T02:33:04.776Z,7.25
2022-12-18T02:38:05.511Z,7.32
2022-12-18T02:43:10.011Z,7.16
2022-12-18T02:48:09.072Z,6.74
2022-12-18T02:53:17.700Z,6.99
2022-12-18T02:58:19.627Z,7.24
2022-12-18T03:03:26.150Z,7.14
2022-12-18T03:08:28.549Z,6.78
2022-12-18T03:13:34.578Z,7.06
2022-12-18T03:18:37.384Z,6.79
2022-12-18T03:23:37.768Z,6.93
2022-12-18T03:28:40.968Z,6.81
2022-12-18T03:33:43.403Z,6.59
2022-12-18T03:38:40.426Z,6.79
2022-12-18T03:43:48.546Z,6.73
2022-12-18T03:48:53.490Z,6.20
2022-12-18T03:53:57.011Z,6.58
2022-12-18T03:59:02.802Z,6.29
2022-12-18T04:04:05.259Z,6.19
2022-12-18T04:09:05.788Z,6.52
2022-12-18T04:14:07.737Z,6.50
2022-12-18T04:19:05.520Z,6.27
2022-12-18T04:24:09.177Z,6.46
2022-12-18T04:29:13.026Z,6.17
2022-12-18T04:34:10.536Z,6.17
2022-12-18T04:39:13.590Z,6.04
2022-12-18T04:44:12.385Z,6.19
2022-12-18T04:49:10.884Z,6.24
2022-12-18T04:54:07.658Z,6.28
2022-12-18T04:59:05.238Z,6.00
2022-12-18T05:04:02.927Z,6.25
2022-12-18T05:08:59.725Z,5.85
2022-12-18T05:13:59.581Z,6.22
2022-12-18T05:18:56.436Z,6.14
2022-12-18T05:23:53.889Z,6.14
2022-12-18T05:28:50.716Z,5.98
2022-12-18T05:33:50.313Z,5.73
2022-12-18T05:38:47.100Z,5.94
2022-12-18T05:43:44.810Z,5.75
2022-12-18T05:48:42.921Z,5.66
2022-12-18T05:53:40.132Z,5.84
2022-12-18T05:58:37.737Z,5.86
2022-12-18T06:03:35.361Z,5.89
2022-12-18T06:08:32.136Z,5.87
2022-12-18T06:13:28.892Z,5.93
2022-12-18T06:18:25.652Z,5.96
2022-12-18T06:23:23.424Z,5.87
2022-12-18T06:28:20.843Z,5.66
2022-12-18T06:33:18.108Z,5.96
2022-12-18T06:38:15.031Z,6.12
2022-12-18T06:43:12.629Z,6.11
2022-12-18T06:48:09.455Z,5.63
2022-12-18T06:53:06.212Z,6.26
2022-12-18T06:58:04.222Z,6.03
2022-12-18T07:03:01.776Z,5.70
2022-12-18T07:07:59.114Z,6.24
2022-12-18T07:13:00.132Z,6.51
2022-12-18T07:17:57.234Z,6.40
2022-12-18T07:22:56.348Z,6.41
2022-12-18T07:27:53.369Z,6.35
2022-12-18T07:32:50.481Z,6.25
2022-12-18T07:37:47.460Z,6.53
2022-12-18T07:42:44.939Z,6.66
2022-12-18T07:47:43.063Z,6.66
2022-12-18T07:52:39.990Z,6.95
2022-12-18T07:57:56.390Z,7.28
2022-12-18T08:02:56.363Z,7.74
2022-12-18T08:07:53.650Z,8.12
2022-12-18T08:12:51.831Z,8.19
2022-12-18T08:17:48.654Z,8.80
2022-12-18T08:22:48.314Z,8.78
2022-12-18T08:27:45.443Z,9.32
2022-12-18T08:32:43.326Z,9.39
2022-12-18T08:37:41.320Z,9.52
2022-12-18T08:42:58.434Z,9.73
2022-12-18T08:48:19.274Z,9.63
2022-12-18T08:53:19.090Z,9.84
2022-12-18T08:58:18.229Z,9.84
2022-12-18T09:03:16.327Z,9.99
2022-12-18T09:08:13.803Z,9.88
2022-12-18T09:13:11.548Z,9.84
2022-12-18T09:18:15.608Z,10.03
2022-12-18T09:23:14.323Z,9.69
2022-12-18T09:28:17.253Z,10.06
2022-12-18T09:33:16.337Z,10.03
2022-12-18T09:38:15.229Z,10.15
2022-12-18T09:43:20.141Z,10.13
2022-12-18T09:48:23.854Z,10.26
2022-12-18T09:53:25.748Z,10.08
2022-12-18T09:58:48.836Z,9.77
2022-12-18T10:03:46.478Z,10.29
2022-12-18T10:08:49.119Z,10.04
2022-12-18T10:13:53.129Z,10.15
2022-12-18T10:19:05.290Z,10.45
2022-12-18T10:24:14.906Z,10.68
2022-12-18T10:29:13.779Z,10.77
2022-12-18T10:34:14.308Z,10.75
2022-12-18T10:39:17.273Z,10.46
2022-12-18T10:44:19.005Z,10.16
2022-12-18T10:49:28.889Z,10.17
2022-12-18T10:54:28.243Z,10.00
2022-12-18T10:59:25.213Z,9.76
2022-12-18T11:04:26.351Z,9.86
2022-12-18T11:09:24.965Z,9.86
2022-12-18T11:14:25.468Z,9.52
2022-12-18T11:19:31.721Z,9.90
2022-12-18T11:24:31.659Z,9.91
2022-12-18T11:29:34.895Z,9.36
2022-12-18T11:34:33.535Z,9.98
2022-12-18T11:39:36.893Z,9.40
2022-12-18T11:44:42.082Z,9.46
2022-12-18T11:49:51.501Z,9.78
2022-12-18T11:54:53.583Z,10.14
2022-12-18T12:00:02.051Z,10.02
2022-12-18T12:05:28.666Z,10.16
2022-12-18T12:10:38.949Z,10.01
2022-12-18T12:15:59.190Z,9.78
2022-12-18T12:21:07.321Z,10.26
2022-12-18T12:26:08.786Z,10.13
2022-12-18T12:31:17.460Z,10.17
2022-12-18T12:36:22.046Z,10.04
2022-12-18T12:41:40.894Z,9.95
2022-12-18T12:46:41.416Z,9.63
2022-12-18T12:51:41.549Z,9.56
2022-12-18T12:56:43.146Z,9.58
2022-12-18T13:01:48.646Z,9.46
2022-12-18T13:06:52.453Z,9.42
2022-12-18T13:12:07.921Z,9.58
2022-12-18T13:17:25.552Z,9.49
2022-12-18T13:22:25.900Z,9.17
2022-12-18T13:27:55.622Z,9.28
2022-12-18T13:34:24.672Z,9.14
2022-12-18T13:39:36.716Z,9.13
2022-12-18T13:44:40.303Z,8.99
2022-12-18T13:49:40.675Z,9.02
2022-12-18T13:54:43.364Z,8.67
2022-12-18T13:59:40.797Z,8.83
2022-12-18T14:04:39.530Z,8.81
2022-12-18T14:09:38.886Z,8.77
2022-12-18T14:14:38.195Z,8.87
2022-12-18T14:19:35.414Z,8.65
2022-12-18T14:24:32.394Z,8.25
2022-12-18T14:29:31.055Z,8.65
2022-12-18T14:34:30.674Z,8.62
2022-12-18T14:39:36.673Z,8.31
2022-12-18T14:44:50.774Z,8.00
2022-12-18T14:50:15.767Z,8.19
2022-12-18T15:01:15.266Z,7.09
2022-12-18T15:13:21.630Z,6.17
2022-12-18T15:18:24.074Z,5.94
2022-12-18T15:23:22.974Z,5.79
2022-12-18T15:28:27.375Z,5.97
2022-12-18T15:33:33.382Z,5.78
2022-12-18T15:38:30.846Z,5.81
2022-12-18T15:43:37.209Z,5.55
2022-12-18T15:48:38.231Z,5.72
2022-12-18T15:53:35.154Z,5.53
2022-12-18T15:58:34.932Z,5.56
2022-12-18T16:03:31.957Z,5.57
2022-12-18T16:08:29.674Z,5.44
2022-12-18T16:13:26.608Z,5.47
2022-12-18T16:18:25.372Z,5.29
2022-12-18T16:23:28.010Z,4.92
2022-12-18T16:28:28.417Z,5.14
2022-12-18T16:33:28.508Z,5.35
2022-12-18T16:38:25.462Z,5.51
2022-12-18T16:43:22.280Z,5.06
2022-12-18T16:48:19.813Z,5.25
2022-12-18T16:53:17.533Z,5.22
2022-12-18T16:58:14.342Z,5.22
2022-12-18T17:03:11.402Z,5.29
2022-12-18T17:08:23.421Z,5.17
2022-12-18T17:13:25.629Z,5.09
2022-12-18T17:18:22.850Z,5.35
2022-12-18T17:23:19.705Z,5.35
2022-12-18T17:28:16.473Z,5.38
2022-12-18T17:33:13.903Z,5.33
2022-12-18T17:38:11.292Z,5.18
2022-12-18T17:43:09.321Z,4.97
2022-12-18T17:48:07.332Z,4.96
2022-12-18T17:53:04.854Z,5.22
2022-12-18T17:58:01.733Z,4.71
2022-12-18T18:02:58.909Z,4.96
2022-12-18T18:07:56.563Z,4.82
2022-12-18T18:13:12.232Z,4.71
2022-12-18T18:18:09.946Z,4.57
2022-12-18T18:23:08.249Z,4.28
2022-12-18T18:28:05.829Z,4.32
2022-12-18T18:33:08.873Z,4.27
2022-12-18T18:38:08.881Z,4.34
2022-12-18T18:43:06.381Z,4.34
2022-12-18T18:48:04.007Z,4.49
2022-12-18T18:53:00.853Z,3.91
2022-12-18T18:57:57.672Z,4.50
2022-12-18T19:03:00.410Z,4.36
2022-12-18T19:07:57.800Z,4.12
2022-12-18T19:13:13.200Z,4.23
2022-12-18T19:18:10.730Z,4.48
2022-12-18T19:23:08.004Z,4.48
2022-12-18T19:28:05.758Z,4.47
2022-12-18T19:33:19.893Z,4.46
2022-12-18T19:38:23.949Z,3.92
2022-12-18T19:43:21.156Z,3.67
2022-12-18T19:48:18.132Z,3.62
2022-12-18T19:53:15.188Z,3.89
2022-12-18T19:58:12.779Z,3.75
2022-12-18T20:03:21.279Z,3.70
2022-12-18T20:08:22.324Z,3.80
2022-12-18T20:13:20.180Z,3.35
2022-12-18T20:18:17.056Z,3.57
2022-12-18T20:23:14.739Z,3.57
2022-12-18T20:28:11.627Z,3.53
2022-12-18T20:33:09.081Z,3.51
2022-12-18T20:38:06.235Z,3.20
2022-12-18T20:43:03.594Z,3.23
2022-12-18T20:48:01.061Z,3.47
2022-12-18T20:52:58.622Z,3.40
2022-12-18T20:57:55.565Z,3.28
2022-12-18T21:02:52.463Z,3.44
2022-12-18T21:07:49.462Z,3.10
2022-12-18T21:12:58.824Z,3.20
2022-12-18T21:17:58.368Z,3.60
2022-12-18T21:22:57.725Z,3.58
2022-12-18T21:28:09.490Z,3.92
2022-12-18T21:33:06.343Z,3.95
2022-12-18T21:38:03.199Z,3.76
2022-12-18T21:43:20.501Z,4.17
2022-12-18T21:48:17.993Z,3.85
2022-12-18T21:53:14.783Z,4.22
2022-12-18T21:58:11.724Z,4.03
2022-12-18T22:03:18.687Z,3.80
2022-12-18T22:08:16.728Z,4.15
2022-12-18T22:13:13.578Z,3.97
2022-12-18T22:18:10.371Z,3.92
2022-12-18T22:23:07.305Z,3.97
2022-12-18T22:28:23.373Z,4.11
2022-12-18T22:33:20.111Z,4.05
2022-12-18T22:38:19.904Z,3.87
2022-12-18T22:43:17.481Z,3.82
2022-12-18T22:48:14.295Z,3.60
2022-12-18T22:53:13.387Z,3.44
2022-12-18T22:58:10.231Z,3.44
2022-12-18T23:03:09.006Z,3.23
2022-12-18T23:08:05.864Z,3.54
2022-12-18T23:13:02.725Z,3.50
2022-12-18T23:17:59.833Z,3.31
2022-12-18T23:22:57.308Z,3.20
2022-12-18T23:27:54.112Z,2.95
2022-12-18T23:32:51.072Z,3.43
2022-12-18T23:37:59.220Z,3.40
2022-12-18T23:42:58.362Z,3.33
2022-12-18T23:47:55.164Z,3.17
2022-12-18T23:52:51.909Z,2.88
2022-12-18T23:57:48.765Z,3.18
